Portage, UT (84331)

10:09 AM MST on January 26, 2015 (GMT -0700)
Newton So. - Dyacon.com | Change Station
CLOSE
Current Station
Personal Weather Station
Location: Newton, UT
Elevation: 4488 ft
Nearby Weather Stations

Elev 4488 ft 41.86 °N, 111.99 °W | Updated 8 minutes ago

Fog
Fog
33.3 °F
Feels Like 33 °F
N
2.5
Wind Variable Wind from South

Today
High -- | Low -- °F
--% Chance of Precip.
Yesterday
High -- | Low -- °F
Precip. -- in
7:47 AM 5:35 PM
Waxing Crescent, 45% visible
Pressure 30.49 in
Visibility 0.2 miles
Clouds
Windchill 33 °F
Dew Point 32 °F
Humidity 95%
Rainfall 0.00 in
Snow Depth Not available.
UV Not available.
Pollen .10 out of 12
Air Quality Not available.
Flu Activity Not available.
METAR KLGU 261651Z AUTO 23005KT 1/4SM FZFG VV002 M02/M03 A3041 RMK AO2 SLP324 I1001 T10221028

More Conditions Fewer Conditions

Pressure 30.49 in
Visibility 0.2 miles
Clouds
Windchill 33 °F
Dew Point 32 °F
Humidity 95%
Rainfall 0.00 in
Snow Depth Not available.
UV Not available.
Pollen .10 out of 12
Air Quality Not available.
Flu Activity Not available.
METAR KLGU 261651Z AUTO 23005KT 1/4SM FZFG VV002 M02/M03 A3041 RMK AO2 SLP324 I1001 T10221028

More Conditions Fewer Conditions

10-Day Weather Forecast

Almanac

Astronomy

Jan. 26, 2015 Rise Set
Actual Time
Civil Twilight
Nautical Twilight
Astronomical Twilight
Moon
Length of Visible Light
Length of Day
Tomorrow will be .
, % of the Moon is Illuminated

Today's Extremes

State Highs State Lows

Community

WunderPhotos

Upload Photos

1,790,298 photos uploaded!

WunderBlogs® & News

Nearby

Air Quality

  Air Quality AQ Index Pollutant
Not available.

Snow Depth

Station Depth Elevation

Earthquake Activity

City Distance Mag. Time & Date
Minimum magnitude displayed is 2.5.

Coastal Water Temperatures

Place Temperature

Nearby Weather Stations